Welcome to the New NWS' Forecast!
Most changes are behind the scenes, but click here for differences you might notice.

Terminal Aerodrome Forecast (TAF)

Issued by National Weather Service (NWS)

                            
832 
FTUS42 KKEY 151455 AAA
TAFMTH
TAF AMD
KMTH 151455Z 1515/1612 03006KT P6SM SKC=